createdAt,value
2023-03-29T00:03:05.600Z,-4.10
2023-03-29T00:06:32.073Z,-4.03
2023-03-29T00:09:57.076Z,-4.01
2023-03-29T00:13:24.490Z,-4.04
2023-03-29T00:16:49.052Z,-4.01
2023-03-29T00:20:14.751Z,-4.03
2023-03-29T00:23:39.069Z,-4.01
2023-03-29T00:27:03.802Z,-3.94
2023-03-29T00:30:30.040Z,-3.89
2023-03-29T00:33:53.611Z,-3.79
2023-03-29T00:37:16.991Z,-3.70
2023-03-29T00:40:47.419Z,-3.60
2023-03-29T00:44:45.607Z,-3.61
2023-03-29T00:48:12.890Z,-3.48
2023-03-29T00:51:40.846Z,-3.46
2023-03-29T00:55:08.615Z,-3.40
2023-03-29T00:58:38.030Z,-3.44
2023-03-29T01:02:06.020Z,-3.42
2023-03-29T01:05:35.429Z,-3.41
2023-03-29T01:09:02.679Z,-3.42
2023-03-29T01:12:31.782Z,-3.46
2023-03-29T01:15:56.946Z,-3.39
2023-03-29T01:19:27.022Z,-3.37
2023-03-29T01:23:09.032Z,-3.36
2023-03-29T01:26:43.046Z,-3.50
2023-03-29T01:30:15.840Z,-3.37
2023-03-29T01:33:45.251Z,-3.38
2023-03-29T01:37:16.901Z,-3.37
2023-03-29T01:40:42.389Z,-3.34
2023-03-29T01:44:09.794Z,-3.32
2023-03-29T01:47:41.804Z,-3.32
2023-03-29T01:51:09.917Z,-3.28
2023-03-29T01:54:39.921Z,-3.28
2023-03-29T01:58:05.703Z,-3.31
2023-03-29T02:01:34.188Z,-3.28
2023-03-29T02:05:01.140Z,-3.31
2023-03-29T02:08:25.840Z,-3.32
2023-03-29T02:11:51.156Z,-3.49
2023-03-29T02:15:16.921Z,-3.53
2023-03-29T02:18:41.294Z,-3.46
2023-03-29T02:22:12.427Z,-3.54
2023-03-29T02:25:38.260Z,-3.55
2023-03-29T02:29:01.891Z,-3.57
2023-03-29T02:32:33.399Z,-3.60
2023-03-29T02:36:02.543Z,-3.64
2023-03-29T02:39:30.059Z,-3.69
2023-03-29T02:42:53.923Z,-3.69
2023-03-29T02:46:21.003Z,-3.71
2023-03-29T02:49:45.831Z,-3.69
2023-03-29T02:53:14.301Z,-3.82
2023-03-29T02:56:47.124Z,-3.71
2023-03-29T03:00:12.963Z,-3.75
2023-03-29T03:03:36.709Z,-3.87
2023-03-29T03:07:00.387Z,-3.86
2023-03-29T03:10:24.021Z,-3.82
2023-03-29T03:13:48.748Z,-3.92
2023-03-29T03:17:12.125Z,-3.83
2023-03-29T03:20:35.992Z,-3.86
2023-03-29T03:23:59.878Z,-3.79
2023-03-29T03:27:24.991Z,-3.81
2023-03-29T03:30:52.660Z,-3.83
2023-03-29T03:34:15.820Z,-3.92
2023-03-29T03:37:41.138Z,-3.96
2023-03-29T03:41:05.586Z,-3.85
2023-03-29T03:44:29.819Z,-3.84
2023-03-29T03:47:56.321Z,-3.82
2023-03-29T03:51:19.631Z,-3.84
2023-03-29T03:54:44.005Z,-3.82
2023-03-29T03:58:08.835Z,-3.84
2023-03-29T04:01:32.706Z,-3.86
2023-03-29T04:04:57.817Z,-3.80
2023-03-29T04:08:22.929Z,-3.79
2023-03-29T04:11:47.832Z,-3.80
2023-03-29T04:15:13.021Z,-3.77
2023-03-29T04:18:37.170Z,-3.75
2023-03-29T04:22:02.252Z,-3.79
2023-03-29T04:25:25.926Z,-3.74
2023-03-29T04:28:49.702Z,-3.72
2023-03-29T04:32:12.871Z,-3.67
2023-03-29T04:35:36.077Z,-3.74
2023-03-29T04:39:03.192Z,-3.60
2023-03-29T04:42:26.871Z,-3.64
2023-03-29T04:45:50.137Z,-3.52
2023-03-29T04:49:14.074Z,-3.46
2023-03-29T04:52:38.822Z,-3.47
2023-03-29T04:56:04.057Z,-3.39
2023-03-29T04:59:28.242Z,-3.35
2023-03-29T05:02:51.408Z,-3.29
2023-03-29T05:06:14.549Z,-3.20
2023-03-29T05:09:39.064Z,-3.26
2023-03-29T05:13:04.978Z,-3.11
2023-03-29T05:16:31.094Z,-3.07
2023-03-29T05:19:55.307Z,-3.02
2023-03-29T05:23:19.902Z,-3.00
2023-03-29T05:26:43.688Z,-2.89
2023-03-29T05:30:09.713Z,-2.82
2023-03-29T05:33:34.088Z,-2.84
2023-03-29T05:37:00.032Z,-2.76
2023-03-29T05:40:26.470Z,-2.73
2023-03-29T05:43:49.550Z,-2.72
2023-03-29T05:47:14.031Z,-2.67
2023-03-29T05:50:39.244Z,-2.62
2023-03-29T05:54:02.823Z,-2.63
2023-03-29T05:57:26.326Z,-2.54
2023-03-29T06:00:50.664Z,-2.51
2023-03-29T06:04:15.961Z,-2.46
2023-03-29T06:07:40.704Z,-2.41
2023-03-29T06:11:06.479Z,-2.41
2023-03-29T06:14:30.411Z,-2.33
2023-03-29T06:17:53.599Z,-2.32
2023-03-29T06:21:19.504Z,-2.29
2023-03-29T06:24:43.284Z,-2.31
2023-03-29T06:28:07.102Z,-2.27
2023-03-29T06:31:31.985Z,-2.20
2023-03-29T06:34:57.116Z,-2.21
2023-03-29T06:38:23.221Z,-2.20
2023-03-29T06:41:46.995Z,-2.10
2023-03-29T06:45:12.001Z,-2.06
2023-03-29T06:48:36.112Z,-1.97
2023-03-29T06:52:01.004Z,-1.92
2023-03-29T06:55:28.783Z,-1.84
2023-03-29T06:58:52.242Z,-1.78
2023-03-29T07:02:18.383Z,-1.75
2023-03-29T07:05:43.282Z,-1.59
2023-03-29T07:09:07.433Z,-1.53
2023-03-29T07:12:33.291Z,-1.46
2023-03-29T07:15:56.791Z,-1.42
2023-03-29T07:19:20.125Z,-1.35
2023-03-29T07:22:44.345Z,-1.35
2023-03-29T07:26:10.452Z,-1.42
2023-03-29T07:29:37.309Z,-1.33
2023-03-29T07:33:00.379Z,-1.33
2023-03-29T07:36:24.869Z,-1.33
2023-03-29T07:39:49.131Z,-1.36
2023-03-29T07:43:14.167Z,-1.30
2023-03-29T07:46:40.464Z,-1.26
2023-03-29T07:50:05.616Z,-1.18
2023-03-29T07:53:30.417Z,-1.16
2023-03-29T07:56:55.863Z,-1.22
2023-03-29T08:00:21.295Z,-1.30
2023-03-29T08:03:48.495Z,-1.36
2023-03-29T08:07:13.490Z,-1.22
2023-03-29T08:10:37.457Z,-1.20
2023-03-29T08:14:03.438Z,-1.05
2023-03-29T08:17:28.152Z,-0.98
2023-03-29T08:20:55.465Z,-0.86
2023-03-29T08:24:20.912Z,-0.82
2023-03-29T08:27:46.342Z,-0.82
2023-03-29T08:31:12.611Z,-0.71
2023-03-29T08:34:37.275Z,-0.67
2023-03-29T08:38:04.433Z,-0.75
2023-03-29T08:41:40.604Z,-0.76
2023-03-29T08:45:12.267Z,-0.78
2023-03-29T08:48:43.164Z,-0.74
2023-03-29T08:52:18.466Z,-0.80
2023-03-29T08:55:48.691Z,-0.80
2023-03-29T08:59:22.626Z,-0.83
2023-03-29T09:02:48.680Z,-0.88
2023-03-29T09:06:15.599Z,-0.99
2023-03-29T09:09:42.252Z,-1.01
2023-03-29T09:13:32.725Z,-1.02
2023-03-29T09:17:04.105Z,-1.05
2023-03-29T09:20:42.326Z,-1.03
2023-03-29T09:24:24.644Z,-1.03
2023-03-29T09:27:57.634Z,-0.94
2023-03-29T09:31:29.778Z,-0.75
2023-03-29T09:35:05.217Z,-0.74
2023-03-29T09:38:33.346Z,-0.63
2023-03-29T09:42:04.386Z,-0.51
2023-03-29T09:45:31.697Z,-0.45
2023-03-29T09:49:00.034Z,-0.53
2023-03-29T09:52:25.351Z,-0.59
2023-03-29T09:55:52.430Z,-0.64
2023-03-29T09:59:17.520Z,-0.73
2023-03-29T10:02:42.877Z,-0.59
2023-03-29T10:06:12.751Z,-0.64
2023-03-29T10:09:38.375Z,-0.59
2023-03-29T10:13:07.379Z,-0.49
2023-03-29T10:16:34.898Z,-0.45
2023-03-29T10:20:04.251Z,-0.43
2023-03-29T10:23:35.414Z,-0.49
2023-03-29T10:27:03.400Z,-0.45
2023-03-29T10:30:30.445Z,-0.47
2023-03-29T10:33:58.432Z,-0.42
2023-03-29T10:37:24.863Z,-0.36
2023-03-29T10:40:53.471Z,-0.26
2023-03-29T10:44:34.231Z,-0.19
2023-03-29T10:48:00.700Z,-0.12
2023-03-29T10:51:28.366Z,-0.03
2023-03-29T10:54:56.591Z,-0.03
2023-03-29T10:58:35.262Z,0.10
2023-03-29T11:02:32.488Z,0.19
2023-03-29T11:06:05.418Z,0.15
2023-03-29T11:09:46.402Z,0.22
2023-03-29T11:13:20.415Z,0.18
2023-03-29T11:16:54.640Z,0.16
2023-03-29T11:20:30.398Z,0.35
2023-03-29T11:24:25.221Z,0.51
2023-03-29T11:28:00.658Z,0.62
2023-03-29T11:31:37.985Z,0.56
2023-03-29T11:35:22.234Z,0.51
2023-03-29T11:38:58.695Z,0.27
2023-03-29T11:42:28.511Z,0.63
2023-03-29T11:45:57.517Z,0.64
2023-03-29T11:49:28.358Z,0.67
2023-03-29T11:53:00.597Z,0.71
2023-03-29T11:56:31.725Z,0.76
2023-03-29T12:00:05.458Z,0.94
2023-03-29T12:03:44.756Z,1.10
2023-03-29T12:07:20.714Z,1.26
2023-03-29T12:10:55.444Z,1.31
2023-03-29T12:14:26.059Z,1.50
2023-03-29T12:18:03.471Z,1.60
2023-03-29T12:21:32.686Z,1.67
2023-03-29T12:24:59.464Z,1.62
2023-03-29T12:28:57.416Z,1.54
2023-03-29T12:33:00.599Z,1.46
2023-03-29T12:36:48.981Z,1.53
2023-03-29T12:40:18.388Z,1.65
2023-03-29T12:43:45.754Z,1.68
2023-03-29T12:47:21.258Z,1.54
2023-03-29T12:50:50.523Z,1.41
2023-03-29T12:54:20.439Z,1.19
2023-03-29T12:57:48.446Z,1.12
2023-03-29T13:01:29.121Z,1.27
2023-03-29T13:04:58.438Z,1.21
2023-03-29T13:08:31.195Z,1.20
2023-03-29T13:11:57.538Z,1.21
2023-03-29T13:15:28.384Z,1.22
2023-03-29T13:19:21.436Z,1.29
2023-03-29T13:22:59.456Z,1.30
2023-03-29T13:26:35.728Z,1.36
2023-03-29T13:30:23.778Z,1.37
2023-03-29T13:34:00.461Z,1.44
2023-03-29T13:37:40.728Z,1.43
2023-03-29T13:41:08.187Z,1.50
2023-03-29T13:44:46.416Z,1.45
2023-03-29T13:48:29.791Z,1.46
2023-03-29T13:52:10.434Z,1.37
2023-03-29T13:55:44.779Z,1.33
2023-03-29T13:59:17.741Z,1.20
2023-03-29T14:02:49.668Z,1.25
2023-03-29T14:06:18.816Z,1.22
2023-03-29T14:09:47.006Z,1.24
2023-03-29T14:13:16.722Z,1.26
2023-03-29T14:16:44.263Z,1.09
2023-03-29T14:20:13.799Z,1.05
2023-03-29T14:23:42.697Z,1.00
2023-03-29T14:27:10.672Z,0.93
2023-03-29T14:30:37.023Z,0.87
2023-03-29T14:34:04.478Z,0.81
2023-03-29T14:37:32.781Z,0.83
2023-03-29T14:41:02.922Z,0.74
2023-03-29T14:44:32.313Z,0.71
2023-03-29T14:47:58.777Z,0.71
2023-03-29T14:51:28.260Z,0.63
2023-03-29T14:54:57.770Z,0.66
2023-03-29T14:58:25.655Z,0.50
2023-03-29T15:01:51.014Z,0.61
2023-03-29T15:05:39.647Z,0.56
2023-03-29T15:09:07.086Z,0.58
2023-03-29T15:12:34.657Z,0.57
2023-03-29T15:16:05.145Z,0.54
2023-03-29T15:19:32.660Z,0.43
2023-03-29T15:23:04.642Z,0.40
2023-03-29T15:26:32.929Z,0.43
2023-03-29T15:30:04.735Z,0.41
2023-03-29T15:33:38.664Z,0.34
2023-03-29T15:37:04.829Z,0.30
2023-03-29T15:40:30.629Z,0.26
2023-03-29T15:43:55.471Z,0.22
2023-03-29T15:47:18.838Z,0.18
2023-03-29T15:50:42.825Z,0.13
2023-03-29T15:54:08.552Z,0.08
2023-03-29T15:57:34.576Z,0.06
2023-03-29T16:01:03.410Z,-0.01
2023-03-29T16:04:30.435Z,-0.06
2023-03-29T16:07:55.472Z,-0.24
2023-03-29T16:11:18.811Z,-0.18
2023-03-29T16:14:46.203Z,-0.22
2023-03-29T16:18:11.918Z,-0.31
2023-03-29T16:21:38.467Z,-0.37
2023-03-29T16:25:06.116Z,-0.51
2023-03-29T16:28:30.523Z,-0.51
2023-03-29T16:31:57.745Z,-0.51
2023-03-29T16:35:28.515Z,-0.55
2023-03-29T16:38:52.512Z,-0.70
2023-03-29T16:42:19.240Z,-0.68
2023-03-29T16:45:43.176Z,-0.78
2023-03-29T16:49:09.676Z,-0.84
2023-03-29T16:52:34.468Z,-0.89
2023-03-29T16:55:59.785Z,-0.96
2023-03-29T16:59:26.025Z,-1.05
2023-03-29T17:02:51.687Z,-1.12
2023-03-29T17:06:18.600Z,-1.17
2023-03-29T17:09:42.782Z,-1.23
2023-03-29T17:13:08.510Z,-1.33
2023-03-29T17:16:33.556Z,-1.36
2023-03-29T17:20:00.200Z,-1.42
2023-03-29T17:23:25.685Z,-1.45
2023-03-29T17:26:49.771Z,-1.51
2023-03-29T17:30:17.640Z,-1.70
2023-03-29T17:33:42.753Z,-1.64
2023-03-29T17:37:06.638Z,-1.70
2023-03-29T17:40:34.105Z,-1.75
2023-03-29T17:43:58.701Z,-1.86
2023-03-29T17:47:22.687Z,-1.87
2023-03-29T17:50:47.794Z,-1.91
2023-03-29T17:54:13.523Z,-2.00
2023-03-29T17:57:40.580Z,-2.04
2023-03-29T18:01:11.415Z,-2.34
2023-03-29T18:04:36.026Z,-2.15
2023-03-29T18:08:00.717Z,-2.21
2023-03-29T18:11:26.652Z,-2.25
2023-03-29T18:14:52.988Z,-2.39
2023-03-29T18:18:18.713Z,-2.42
2023-03-29T18:21:43.629Z,-2.49
2023-03-29T18:25:09.855Z,-2.57
2023-03-29T18:28:34.663Z,-2.65
2023-03-29T18:32:03.768Z,-2.80
2023-03-29T18:35:28.694Z,-2.77
2023-03-29T18:38:54.505Z,-2.80
2023-03-29T18:42:18.687Z,-2.97
2023-03-29T18:45:43.711Z,-2.95
2023-03-29T18:49:10.556Z,-3.00
2023-03-29T18:52:34.656Z,-3.06
2023-03-29T18:55:59.647Z,-3.31
2023-03-29T18:59:23.632Z,-3.17
2023-03-29T19:02:48.816Z,-3.25
2023-03-29T19:06:16.713Z,-3.34
2023-03-29T19:09:42.033Z,-3.37
2023-03-29T19:13:08.168Z,-3.44
2023-03-29T19:16:32.566Z,-3.47
2023-03-29T19:19:57.057Z,-3.52
2023-03-29T19:23:23.120Z,-3.55
2023-03-29T19:26:49.262Z,-3.65
2023-03-29T19:30:13.722Z,-3.67
2023-03-29T19:33:38.762Z,-3.69
2023-03-29T19:37:03.432Z,-3.72
2023-03-29T19:40:28.635Z,-3.79
2023-03-29T19:43:54.565Z,-3.82
2023-03-29T19:47:18.553Z,-3.89
2023-03-29T19:50:44.297Z,-3.92
2023-03-29T19:54:09.107Z,-3.97
2023-03-29T19:57:35.786Z,-4.20
2023-03-29T20:01:00.931Z,-4.04
2023-03-29T20:04:26.821Z,-4.08
2023-03-29T20:07:50.541Z,-4.14
2023-03-29T20:11:16.161Z,-4.20
2023-03-29T20:14:43.935Z,-4.22
2023-03-29T20:18:08.997Z,-4.27
2023-03-29T20:21:34.564Z,-4.35
2023-03-29T20:24:58.560Z,-4.36
2023-03-29T20:28:22.385Z,-4.45
2023-03-29T20:31:48.584Z,-4.54
2023-03-29T20:35:13.573Z,-4.49
2023-03-29T20:38:39.101Z,-4.65
2023-03-29T20:42:04.714Z,-4.57
2023-03-29T20:45:28.968Z,-4.71
2023-03-29T20:48:55.767Z,-4.67
2023-03-29T20:52:21.792Z,-4.73
2023-03-29T20:55:47.001Z,-4.78
2023-03-29T20:59:13.749Z,-4.95
2023-03-29T21:02:38.913Z,-4.97
2023-03-29T21:06:04.584Z,-4.92
2023-03-29T21:09:28.770Z,-5.09
2023-03-29T21:12:55.013Z,-4.96
2023-03-29T21:17:27.832Z,-4.99
2023-03-29T21:20:53.020Z,-5.08
2023-03-29T21:24:18.823Z,-5.08
2023-03-29T21:27:43.726Z,-5.22
2023-03-29T21:31:07.926Z,-5.14
2023-03-29T21:34:32.235Z,-5.22
2023-03-29T21:37:56.951Z,-5.22
2023-03-29T21:41:24.400Z,-5.22
2023-03-29T21:44:50.032Z,-5.28
2023-03-29T21:48:14.119Z,-5.28
2023-03-29T21:51:39.117Z,-5.28
2023-03-29T21:55:02.974Z,-5.33
2023-03-29T21:58:28.888Z,-5.37
2023-03-29T22:01:53.887Z,-5.40
2023-03-29T22:05:19.198Z,-5.37
2023-03-29T22:08:45.592Z,-5.40
2023-03-29T22:12:10.624Z,-5.42
2023-03-29T22:15:37.920Z,-5.39
2023-03-29T22:19:02.256Z,-5.40
2023-03-29T22:22:26.453Z,-5.39
2023-03-29T22:25:51.008Z,-5.39
2023-03-29T22:29:15.142Z,-5.42
2023-03-29T22:32:40.779Z,-5.44
2023-03-29T22:36:14.605Z,-5.37
2023-03-29T22:39:39.885Z,-5.42
2023-03-29T22:43:05.428Z,-5.34
2023-03-29T22:46:30.645Z,-5.34
2023-03-29T22:49:56.846Z,-5.29
2023-03-29T22:53:20.938Z,-5.31
2023-03-29T22:56:44.946Z,-5.22
2023-03-29T23:00:10.950Z,-5.12
2023-03-29T23:03:36.065Z,-5.09
2023-03-29T23:07:02.707Z,-5.03
2023-03-29T23:10:31.610Z,-5.03
2023-03-29T23:13:55.897Z,-5.07
2023-03-29T23:17:20.190Z,-4.91
2023-03-29T23:20:44.888Z,-4.85
2023-03-29T23:24:10.621Z,-4.81
2023-03-29T23:27:34.083Z,-4.77
2023-03-29T23:30:59.108Z,-4.76
2023-03-29T23:34:22.881Z,-4.71
2023-03-29T23:37:50.349Z,-4.67
2023-03-29T23:41:18.320Z,-4.71
2023-03-29T23:44:42.211Z,-4.69
2023-03-29T23:48:06.822Z,-4.72
2023-03-29T23:51:30.445Z,-4.57
2023-03-29T23:54:55.077Z,-4.50
2023-03-29T23:58:21.207Z,-4.49
